sensor_id;sensor_type;location;lat;lon;timestamp;temperature;humidity
17007;DHT22;8620;51.168;4.154;2023-03-23T07:35:02;11.30;99.90
17007;DHT22;8620;51.168;4.154;2023-03-23T07:37:49;11.40;99.90
17007;DHT22;8620;51.168;4.154;2023-03-23T07:40:22;11.30;99.90
17007;DHT22;8620;51.168;4.154;2023-03-23T07:43:09;11.40;99.90
17007;DHT22;8620;51.168;4.154;2023-03-23T07:45:36;11.30;99.90
17007;DHT22;8620;51.168;4.154;2023-03-23T07:48:08;11.60;99.90
17007;DHT22;8620;51.168;4.154;2023-03-23T07:51:15;11.80;99.90
17007;DHT22;8620;51.168;4.154;2023-03-23T07:53:50;11.90;99.90
17007;DHT22;8620;51.168;4.154;2023-03-23T07:56:21;12.10;99.90
17007;DHT22;8620;51.168;4.154;2023-03-23T07:58:47;12.10;99.90
17007;DHT22;8620;51.168;4.154;2023-03-23T08:01:36;12.00;99.90
17007;DHT22;8620;51.168;4.154;2023-03-23T08:04:05;12.10;99.90
17007;DHT22;8620;51.168;4.154;2023-03-23T08:06:50;12.10;99.90
17007;DHT22;8620;51.168;4.154;2023-03-23T08:09:16;12.00;99.90
17007;DHT22;8620;51.168;4.154;2023-03-23T08:11:43;11.90;99.90
17007;DHT22;8620;51.168;4.154;2023-03-23T08:14:09;11.70;99.90
17007;DHT22;8620;51.168;4.154;2023-03-23T08:16:55;11.70;99.90
17007;DHT22;8620;51.168;4.154;2023-03-23T08:19:42;11.90;99.90
17007;DHT22;8620;51.168;4.154;2023-03-23T08:22:08;12.10;99.90
17007;DHT22;8620;51.168;4.154;2023-03-23T08:24:37;12.50;99.90
17007;DHT22;8620;51.168;4.154;2023-03-23T08:27:04;12.50;99.90
17007;DHT22;8620;51.168;4.154;2023-03-23T08:29:54;12.60;99.90
17007;DHT22;8620;51.168;4.154;2023-03-23T08:32:21;13.30;99.90
17007;DHT22;8620;51.168;4.154;2023-03-23T08:34:47;14.10;99.90
17007;DHT22;8620;51.168;4.154;2023-03-23T08:37:16;14.60;99.90
17007;DHT22;8620;51.168;4.154;2023-03-23T08:40:17;14.90;99.90
17007;DHT22;8620;51.168;4.154;2023-03-23T08:45:48;14.90;99.90
17007;DHT22;8620;51.168;4.154;2023-03-23T08:48:16;14.70;99.90
17007;DHT22;8620;51.168;4.154;2023-03-23T08:50:44;15.20;99.90
17007;DHT22;8620;51.168;4.154;2023-03-23T08:53:10;15.90;99.90
17007;DHT22;8620;51.168;4.154;2023-03-23T08:55:37;16.60;99.90
17007;DHT22;8620;51.168;4.154;2023-03-23T08:58:04;16.70;99.90
17007;DHT22;8620;51.168;4.154;2023-03-23T09:00:31;15.40;99.90
17007;DHT22;8620;51.168;4.154;2023-03-23T09:03:01;14.80;99.90
17007;DHT22;8620;51.168;4.154;2023-03-23T09:05:35;14.40;99.90
17007;DHT22;8620;51.168;4.154;2023-03-23T09:08:04;14.90;99.90
17007;DHT22;8620;51.168;4.154;2023-03-23T09:10:48;15.30;99.90
17007;DHT22;8620;51.168;4.154;2023-03-23T09:13:33;15.80;99.90
17007;DHT22;8620;51.168;4.154;2023-03-23T09:16:07;15.80;99.90
17007;DHT22;8620;51.168;4.154;2023-03-23T09:18:51;15.00;99.90
17007;DHT22;8620;51.168;4.154;2023-03-23T09:21:42;14.70;99.90
17007;DHT22;8620;51.168;4.154;2023-03-23T09:25:03;15.20;99.90
17007;DHT22;8620;51.168;4.154;2023-03-23T09:27:48;14.80;99.90
17007;DHT22;8620;51.168;4.154;2023-03-23T09:30:22;14.70;99.90
17007;DHT22;8620;51.168;4.154;2023-03-23T09:33:30;15.60;99.90
17007;DHT22;8620;51.168;4.154;2023-03-23T09:36:25;15.80;99.90
17007;DHT22;8620;51.168;4.154;2023-03-23T09:39:08;16.20;99.90
17007;DHT22;8620;51.168;4.154;2023-03-23T09:50:19;15.40;99.90
17007;DHT22;8620;51.168;4.154;2023-03-23T09:53:07;16.00;99.90
17007;DHT22;8620;51.168;4.154;2023-03-23T09:55:37;16.50;99.90
17007;DHT22;8620;51.168;4.154;2023-03-23T10:00:40;14.50;99.90
17007;DHT22;8620;51.168;4.154;2023-03-23T10:03:24;14.70;99.90
17007;DHT22;8620;51.168;4.154;2023-03-23T10:06:18;15.20;99.90
17007;DHT22;8620;51.168;4.154;2023-03-23T10:09:04;15.30;99.90
17007;DHT22;8620;51.168;4.154;2023-03-23T10:12:02;15.30;99.90
17007;DHT22;8620;51.168;4.154;2023-03-23T10:36:27;14.90;99.90
17007;DHT22;8620;51.168;4.154;2023-03-23T10:39:27;14.60;99.90
17007;DHT22;8620;51.168;4.154;2023-03-23T10:42:10;14.70;99.90
17007;DHT22;8620;51.168;4.154;2023-03-23T10:44:42;15.00;99.90
17007;DHT22;8620;51.168;4.154;2023-03-23T10:47:11;15.60;99.90
17007;DHT22;8620;51.168;4.154;2023-03-23T10:55:22;15.00;99.90
17007;DHT22;8620;51.168;4.154;2023-03-23T10:58:03;15.00;99.90
17007;DHT22;8620;51.168;4.154;2023-03-23T11:01:03;14.80;99.90
17007;DHT22;8620;51.168;4.154;2023-03-23T11:03:50;15.00;99.90
17007;DHT22;8620;51.168;4.154;2023-03-23T11:06:27;15.70;99.90
17007;DHT22;8620;51.168;4.154;2023-03-23T11:09:00;16.10;99.90
17007;DHT22;8620;51.168;4.154;2023-03-23T11:11:38;16.30;99.90
17007;DHT22;8620;51.168;4.154;2023-03-23T11:14:42;16.10;99.90
17007;DHT22;8620;51.168;4.154;2023-03-23T11:17:54;16.40;99.90
17007;DHT22;8620;51.168;4.154;2023-03-23T11:21:03;16.30;99.90
17007;DHT22;8620;51.168;4.154;2023-03-23T11:23:59;16.30;99.90
17007;DHT22;8620;51.168;4.154;2023-03-23T11:27:03;15.60;99.90
17007;DHT22;8620;51.168;4.154;2023-03-23T11:30:11;15.10;99.90
17007;DHT22;8620;51.168;4.154;2023-03-23T11:32:49;15.10;99.90
17007;DHT22;8620;51.168;4.154;2023-03-23T11:36:04;14.80;99.90
17007;DHT22;8620;51.168;4.154;2023-03-23T11:38:57;15.10;99.90
17007;DHT22;8620;51.168;4.154;2023-03-23T11:41:59;15.70;99.90
17007;DHT22;8620;51.168;4.154;2023-03-23T11:52:23;15.80;99.90
17007;DHT22;8620;51.168;4.154;2023-03-23T11:55:55;17.00;99.90
17007;DHT22;8620;51.168;4.154;2023-03-23T11:58:55;16.40;99.90
17007;DHT22;8620;51.168;4.154;2023-03-23T12:20:02;13.90;99.90
17007;DHT22;8620;51.168;4.154;2023-03-23T12:28:33;14.30;99.90
17007;DHT22;8620;51.168;4.154;2023-03-23T12:42:59;14.80;99.90
17007;DHT22;8620;51.168;4.154;2023-03-23T12:48:42;15.60;99.90
17007;DHT22;8620;51.168;4.154;2023-03-23T12:51:34;15.40;99.90
17007;DHT22;8620;51.168;4.154;2023-03-23T12:54:37;15.70;99.90
17007;DHT22;8620;51.168;4.154;2023-03-23T13:03:19;15.00;99.90
17007;DHT22;8620;51.168;4.154;2023-03-23T13:11:55;14.50;99.90
17007;DHT22;8620;51.168;4.154;2023-03-23T13:14:41;14.70;99.90
17007;DHT22;8620;51.168;4.154;2023-03-23T13:26:06;15.20;99.90
17007;DHT22;8620;51.168;4.154;2023-03-23T13:29:06;15.10;99.90
17007;DHT22;8620;51.168;4.154;2023-03-23T13:32:12;15.50;99.90
17007;DHT22;8620;51.168;4.154;2023-03-23T13:35:02;15.00;99.90
17007;DHT22;8620;51.168;4.154;2023-03-23T13:37:31;15.10;99.90
17007;DHT22;8620;51.168;4.154;2023-03-23T13:42:58;16.10;99.90
17007;DHT22;8620;51.168;4.154;2023-03-23T13:48:18;15.90;99.90
17007;DHT22;8620;51.168;4.154;2023-03-23T13:57:20;16.50;99.90
17007;DHT22;8620;51.168;4.154;2023-03-23T14:00:24;16.30;99.90
17007;DHT22;8620;51.168;4.154;2023-03-23T14:11:08;15.50;99.90
17007;DHT22;8620;51.168;4.154;2023-03-23T14:16:20;15.40;99.90
17007;DHT22;8620;51.168;4.154;2023-03-23T14:19:46;15.50;99.90
17007;DHT22;8620;51.168;4.154;2023-03-23T14:22:24;16.00;99.90
17007;DHT22;8620;51.168;4.154;2023-03-23T14:25:02;16.30;99.90
17007;DHT22;8620;51.168;4.154;2023-03-23T14:27:45;16.60;99.90
17007;DHT22;8620;51.168;4.154;2023-03-23T14:30:19;16.40;99.90
17007;DHT22;8620;51.168;4.154;2023-03-23T14:32:54;16.20;99.90
17007;DHT22;8620;51.168;4.154;2023-03-23T14:35:35;16.40;99.90
17007;DHT22;8620;51.168;4.154;2023-03-23T14:38:12;16.50;99.90
17007;DHT22;8620;51.168;4.154;2023-03-23T14:41:21;16.50;99.90
17007;DHT22;8620;51.168;4.154;2023-03-23T14:43:55;16.00;99.90
17007;DHT22;8620;51.168;4.154;2023-03-23T14:46:22;16.10;99.90
17007;DHT22;8620;51.168;4.154;2023-03-23T14:48:50;16.10;99.90
17007;DHT22;8620;51.168;4.154;2023-03-23T14:51:25;16.20;99.90
17007;DHT22;8620;51.168;4.154;2023-03-23T14:54:29;15.90;99.90
17007;DHT22;8620;51.168;4.154;2023-03-23T14:57:09;15.90;99.90
17007;DHT22;8620;51.168;4.154;2023-03-23T14:59:52;15.80;99.90
17007;DHT22;8620;51.168;4.154;2023-03-23T15:02:43;16.10;99.90
17007;DHT22;8620;51.168;4.154;2023-03-23T15:05:58;16.10;99.90
17007;DHT22;8620;51.168;4.154;2023-03-23T15:08:47;15.80;99.90
17007;DHT22;8620;51.168;4.154;2023-03-23T15:13:54;15.60;99.90
17007;DHT22;8620;51.168;4.154;2023-03-23T15:20:17;15.10;99.90
17007;DHT22;8620;51.168;4.154;2023-03-23T15:22:48;14.90;99.90
17007;DHT22;8620;51.168;4.154;2023-03-23T15:28:48;14.90;99.90
17007;DHT22;8620;51.168;4.154;2023-03-23T15:31:14;14.80;99.90
17007;DHT22;8620;51.168;4.154;2023-03-23T15:34:05;14.80;99.90
17007;DHT22;8620;51.168;4.154;2023-03-23T15:36:36;15.00;99.90
17007;DHT22;8620;51.168;4.154;2023-03-23T15:39:12;15.00;99.90
17007;DHT22;8620;51.168;4.154;2023-03-23T15:42:18;15.10;99.90
17007;DHT22;8620;51.168;4.154;2023-03-23T15:48:11;15.30;99.90
17007;DHT22;8620;51.168;4.154;2023-03-23T15:50:51;15.20;99.90
17007;DHT22;8620;51.168;4.154;2023-03-23T15:53:41;15.20;99.90
17007;DHT22;8620;51.168;4.154;2023-03-23T15:56:40;15.50;99.90
17007;DHT22;8620;51.168;4.154;2023-03-23T15:59:08;15.50;99.90
17007;DHT22;8620;51.168;4.154;2023-03-23T16:01:36;15.60;99.90
17007;DHT22;8620;51.168;4.154;2023-03-23T16:04:04;15.60;99.90
17007;DHT22;8620;51.168;4.154;2023-03-23T16:06:50;15.80;99.90
17007;DHT22;8620;51.168;4.154;2023-03-23T16:09:34;15.80;99.90
17007;DHT22;8620;51.168;4.154;2023-03-23T16:12:23;15.80;99.90
17007;DHT22;8620;51.168;4.154;2023-03-23T16:14:49;15.70;99.90
17007;DHT22;8620;51.168;4.154;2023-03-23T16:17:36;15.80;99.90
17007;DHT22;8620;51.168;4.154;2023-03-23T16:20:19;15.60;99.90
17007;DHT22;8620;51.168;4.154;2023-03-23T16:22:47;15.30;99.90
17007;DHT22;8620;51.168;4.154;2023-03-23T16:25:36;15.10;99.90
17007;DHT22;8620;51.168;4.154;2023-03-23T16:28:19;15.10;99.90
17007;DHT22;8620;51.168;4.154;2023-03-23T16:30:48;15.00;99.90
17007;DHT22;8620;51.168;4.154;2023-03-23T16:33:17;14.80;99.90
17007;DHT22;8620;51.168;4.154;2023-03-23T16:35:53;14.70;99.90
17007;DHT22;8620;51.168;4.154;2023-03-23T16:38:32;15.10;99.90
17007;DHT22;8620;51.168;4.154;2023-03-23T16:41:08;15.40;99.90
17007;DHT22;8620;51.168;4.154;2023-03-23T16:43:43;15.20;99.90
17007;DHT22;8620;51.168;4.154;2023-03-23T16:46:15;15.10;99.90
17007;DHT22;8620;51.168;4.154;2023-03-23T16:48:52;14.80;99.90
17007;DHT22;8620;51.168;4.154;2023-03-23T16:51:38;14.80;99.90
17007;DHT22;8620;51.168;4.154;2023-03-23T16:57:57;14.70;99.90
17007;DHT22;8620;51.168;4.154;2023-03-23T17:01:15;14.80;99.90
17007;DHT22;8620;51.168;4.154;2023-03-23T17:04:28;15.00;99.90
17007;DHT22;8620;51.168;4.154;2023-03-23T17:07:16;15.00;99.90
17007;DHT22;8620;51.168;4.154;2023-03-23T17:10:41;14.90;99.90
17007;DHT22;8620;51.168;4.154;2023-03-23T17:13:49;15.10;99.90
17007;DHT22;8620;51.168;4.154;2023-03-23T17:16:50;15.00;99.90
17007;DHT22;8620;51.168;4.154;2023-03-23T17:19:54;15.00;99.90
17007;DHT22;8620;51.168;4.154;2023-03-23T17:23:08;15.20;99.90
17007;DHT22;8620;51.168;4.154;2023-03-23T17:33:02;15.10;99.90
17007;DHT22;8620;51.168;4.154;2023-03-23T17:36:25;15.10;99.90
17007;DHT22;8620;51.168;4.154;2023-03-23T17:39:23;15.20;99.90
17007;DHT22;8620;51.168;4.154;2023-03-23T17:42:12;15.40;99.90
17007;DHT22;8620;51.168;4.154;2023-03-23T17:45:04;15.20;99.90
17007;DHT22;8620;51.168;4.154;2023-03-23T17:54:27;15.10;99.90
17007;DHT22;8620;51.168;4.154;2023-03-23T17:57:49;15.10;99.90
17007;DHT22;8620;51.168;4.154;2023-03-23T18:00:34;15.10;99.90
17007;DHT22;8620;51.168;4.154;2023-03-23T18:03:24;15.00;99.90
17007;DHT22;8620;51.168;4.154;2023-03-23T18:06:01;15.00;99.90
17007;DHT22;8620;51.168;4.154;2023-03-23T18:08:34;15.00;99.90
17007;DHT22;8620;51.168;4.154;2023-03-23T18:11:02;15.10;99.90
17007;DHT22;8620;51.168;4.154;2023-03-23T18:13:30;15.00;99.90
17007;DHT22;8620;51.168;4.154;2023-03-23T18:15:58;15.00;99.90
17007;DHT22;8620;51.168;4.154;2023-03-23T18:18:28;15.00;99.90
17007;DHT22;8620;51.168;4.154;2023-03-23T18:21:18;15.00;99.90
17007;DHT22;8620;51.168;4.154;2023-03-23T18:23:56;15.00;99.90
17007;DHT22;8620;51.168;4.154;2023-03-23T18:26:22;14.90;99.90
17007;DHT22;8620;51.168;4.154;2023-03-23T18:28:53;15.00;99.90
17007;DHT22;8620;51.168;4.154;2023-03-23T18:31:22;15.10;99.90
17007;DHT22;8620;51.168;4.154;2023-03-23T18:33:58;15.10;99.90
17007;DHT22;8620;51.168;4.154;2023-03-23T18:36:27;15.00;99.90
17007;DHT22;8620;51.168;4.154;2023-03-23T18:38:56;14.70;99.90
17007;DHT22;8620;51.168;4.154;2023-03-23T18:41:23;14.60;99.90
17007;DHT22;8620;51.168;4.154;2023-03-23T18:43:57;14.60;99.90
17007;DHT22;8620;51.168;4.154;2023-03-23T18:46:41;14.50;99.90
17007;DHT22;8620;51.168;4.154;2023-03-23T18:49:09;14.40;99.90
17007;DHT22;8620;51.168;4.154;2023-03-23T18:51:40;14.30;99.90
17007;DHT22;8620;51.168;4.154;2023-03-23T18:57:40;14.30;99.90
17007;DHT22;8620;51.168;4.154;2023-03-23T19:00:12;14.30;99.90
17007;DHT22;8620;51.168;4.154;2023-03-23T19:02:49;14.30;99.90
17007;DHT22;8620;51.168;4.154;2023-03-23T19:05:41;14.30;99.90
17007;DHT22;8620;51.168;4.154;2023-03-23T19:08:18;14.30;99.90
17007;DHT22;8620;51.168;4.154;2023-03-23T19:10:56;14.20;99.90
17007;DHT22;8620;51.168;4.154;2023-03-23T19:13:27;14.10;99.90
17007;DHT22;8620;51.168;4.154;2023-03-23T19:16:03;14.10;99.90
17007;DHT22;8620;51.168;4.154;2023-03-23T19:18:29;14.10;99.90
17007;DHT22;8620;51.168;4.154;2023-03-23T19:21:15;14.10;99.90
17007;DHT22;8620;51.168;4.154;2023-03-23T19:23:44;14.10;99.90
17007;DHT22;8620;51.168;4.154;2023-03-23T19:26:48;14.20;99.90
17007;DHT22;8620;51.168;4.154;2023-03-23T19:36:31;14.20;99.90
17007;DHT22;8620;51.168;4.154;2023-03-23T19:39:38;14.20;99.90
17007;DHT22;8620;51.168;4.154;2023-03-23T19:46:00;14.20;99.90
17007;DHT22;8620;51.168;4.154;2023-03-23T19:49:35;14.20;99.90
17007;DHT22;8620;51.168;4.154;2023-03-23T19:52:43;14.20;99.90
17007;DHT22;8620;51.168;4.154;2023-03-23T19:55:47;14.30;99.90
17007;DHT22;8620;51.168;4.154;2023-03-23T19:59:14;14.30;99.90
17007;DHT22;8620;51.168;4.154;2023-03-23T20:02:34;14.30;99.90
17007;DHT22;8620;51.168;4.154;2023-03-23T20:11:58;14.20;99.90
17007;DHT22;8620;51.168;4.154;2023-03-23T20:15:24;14.20;99.90
17007;DHT22;8620;51.168;4.154;2023-03-23T20:22:23;14.20;99.90
17007;DHT22;8620;51.168;4.154;2023-03-23T20:28:56;14.10;99.90
17007;DHT22;8620;51.168;4.154;2023-03-23T20:31:55;14.10;99.90
17007;DHT22;8620;51.168;4.154;2023-03-23T20:34:46;14.20;99.90
17007;DHT22;8620;51.168;4.154;2023-03-23T20:37:42;14.00;99.90
17007;DHT22;8620;51.168;4.154;2023-03-23T20:50:53;13.90;99.90
17007;DHT22;8620;51.168;4.154;2023-03-23T20:53:57;14.00;99.90
17007;DHT22;8620;51.168;4.154;2023-03-23T20:56:29;13.90;99.90
